createdAt,value
2023-05-14T00:04:04.659Z,3.85
2023-05-14T00:09:06.557Z,4.68
2023-05-14T00:14:08.361Z,4.93
2023-05-14T00:19:10.298Z,4.47
2023-05-14T00:24:12.360Z,4.38
2023-05-14T00:29:14.271Z,3.72
2023-05-14T00:34:16.116Z,4.22
2023-05-14T00:39:18.002Z,4.18
2023-05-14T00:44:19.829Z,4.00
2023-05-14T00:49:22.054Z,4.50
2023-05-14T00:54:23.939Z,3.30
2023-05-14T00:59:26.118Z,3.75
2023-05-14T01:04:28.038Z,3.20
2023-05-14T01:09:48.427Z,3.83
2023-05-14T01:15:02.559Z,4.38
2023-05-14T01:20:04.822Z,3.67
2023-05-14T01:25:08.076Z,4.40
2023-05-14T01:30:31.872Z,4.35
2023-05-14T01:35:34.306Z,4.30
2023-05-14T01:40:37.668Z,3.22
2023-05-14T01:45:39.526Z,4.28
2023-05-14T01:50:41.439Z,5.28
2023-05-14T01:55:43.221Z,4.47
2023-05-14T02:00:44.981Z,4.05
2023-05-14T02:05:46.856Z,5.05
2023-05-14T02:10:48.589Z,3.63
2023-05-14T02:15:50.495Z,3.28
2023-05-14T02:20:52.758Z,4.20
2023-05-14T02:25:54.506Z,4.80
2023-05-14T02:31:03.276Z,4.25
2023-05-14T02:36:05.283Z,3.53
2023-05-14T02:41:07.890Z,5.45
2023-05-14T02:46:09.704Z,4.13
2023-05-14T02:51:12.802Z,3.88
2023-05-14T02:56:14.787Z,4.05
2023-05-14T03:01:18.715Z,3.92
2023-05-14T03:11:22.986Z,4.18
2023-05-14T03:16:24.834Z,3.95
2023-05-14T03:21:27.314Z,4.13
2023-05-14T03:26:29.045Z,4.80
2023-05-14T03:31:31.511Z,4.40
2023-05-14T03:36:34.083Z,4.15
2023-05-14T03:41:36.331Z,4.50
2023-05-14T03:46:38.152Z,4.78
2023-05-14T03:51:40.341Z,5.38
2023-05-14T03:56:42.163Z,4.40
2023-05-14T04:01:44.444Z,3.65
2023-05-14T04:06:46.255Z,4.20
2023-05-14T04:11:47.979Z,3.92
2023-05-14T04:16:49.959Z,4.30
2023-05-14T04:21:51.724Z,3.90
2023-05-14T04:26:53.507Z,4.65
2023-05-14T04:31:56.039Z,4.88
2023-05-14T04:36:57.886Z,4.82
2023-05-14T04:41:59.610Z,4.53
2023-05-14T04:47:02.060Z,3.72
2023-05-14T04:52:03.963Z,3.63
2023-05-14T04:57:06.053Z,4.30
2023-05-14T05:02:08.153Z,4.78
2023-05-14T05:07:09.886Z,4.30
2023-05-14T05:12:11.746Z,4.70
2023-05-14T05:17:13.574Z,3.90
2023-05-14T05:22:15.825Z,3.75
2023-05-14T05:27:17.601Z,3.80
2023-05-14T05:32:19.428Z,3.90
2023-05-14T05:37:21.277Z,4.22
2023-05-14T05:42:23.040Z,4.00
2023-05-14T05:47:24.833Z,3.58
2023-05-14T05:52:26.789Z,4.30
2023-05-14T05:57:28.558Z,3.85
2023-05-14T06:02:30.457Z,3.90
2023-05-14T06:07:32.336Z,4.63
2023-05-14T06:12:34.208Z,3.88
2023-05-14T06:17:36.012Z,4.18
2023-05-14T06:22:38.047Z,4.72
2023-05-14T06:27:39.936Z,4.13
2023-05-14T06:32:41.828Z,4.40
2023-05-14T06:37:43.617Z,4.10
2023-05-14T06:42:45.419Z,4.43
2023-05-14T06:47:47.413Z,4.18
2023-05-14T06:52:49.164Z,4.13
2023-05-14T06:57:50.944Z,3.88
2023-05-14T07:02:52.734Z,3.97
2023-05-14T07:07:54.452Z,3.75
2023-05-14T07:12:56.208Z,3.75
2023-05-14T07:17:58.036Z,4.38
2023-05-14T07:22:59.827Z,3.53
2023-05-14T07:28:01.590Z,3.67
2023-05-14T07:33:03.460Z,3.17
2023-05-14T07:38:06.306Z,3.22
2023-05-14T07:43:08.223Z,3.55
2023-05-14T07:48:10.163Z,3.10
2023-05-14T07:53:12.128Z,3.13
2023-05-14T07:58:14.064Z,3.28
2023-05-14T08:03:16.102Z,3.65
2023-05-14T08:08:18.126Z,3.60
2023-05-14T08:13:19.888Z,3.10
2023-05-14T08:18:21.884Z,3.42
2023-05-14T08:23:23.700Z,4.82
2023-05-14T08:28:25.663Z,3.90
2023-05-14T08:33:27.390Z,3.53
2023-05-14T08:38:29.112Z,3.90
2023-05-14T08:43:50.744Z,3.78
2023-05-14T08:48:59.478Z,3.53
2023-05-14T08:54:03.098Z,3.83
2023-05-14T08:59:04.969Z,3.70
2023-05-14T09:04:08.581Z,3.97
2023-05-14T09:09:11.471Z,3.70
2023-05-14T09:14:13.437Z,3.90
2023-05-14T09:19:16.029Z,3.70
2023-05-14T09:24:23.272Z,3.38
2023-05-14T09:29:26.239Z,3.42
2023-05-14T09:34:30.505Z,3.35
2023-05-14T09:39:33.844Z,3.58
2023-05-14T09:44:37.967Z,3.47
2023-05-14T09:49:40.163Z,3.17
2023-05-14T09:54:41.951Z,4.82
2023-05-14T09:59:43.661Z,3.28
2023-05-14T10:04:46.126Z,3.05
2023-05-14T10:09:48.328Z,2.90
2023-05-14T10:14:54.013Z,2.88
2023-05-14T10:19:58.694Z,3.25
2023-05-14T10:25:01.930Z,3.50
2023-05-14T10:30:10.207Z,3.70
2023-05-14T10:35:20.771Z,3.40
2023-05-14T10:40:25.961Z,3.30
2023-05-14T10:45:28.193Z,3.30
2023-05-14T10:50:30.268Z,3.03
2023-05-14T10:55:32.096Z,2.90
2023-05-14T11:00:35.144Z,3.00
2023-05-14T11:05:39.535Z,2.72
2023-05-14T11:10:43.147Z,3.10
2023-05-14T11:15:48.175Z,2.88
2023-05-14T11:20:49.875Z,2.75
2023-05-14T11:25:53.943Z,2.78
2023-05-14T11:30:56.458Z,2.95
2023-05-14T11:35:58.282Z,2.95
2023-05-14T11:41:00.049Z,3.55
2023-05-14T11:46:01.871Z,3.00
2023-05-14T11:51:05.012Z,2.72
2023-05-14T11:56:09.617Z,2.58
2023-05-14T12:01:13.711Z,2.40
2023-05-14T12:06:15.688Z,2.92
2023-05-14T12:11:21.274Z,2.85
2023-05-14T12:16:23.196Z,2.80
2023-05-14T12:21:27.077Z,2.70
2023-05-14T12:26:32.274Z,2.53
2023-05-14T12:31:36.384Z,2.83
2023-05-14T12:36:38.232Z,2.67
2023-05-14T12:41:40.150Z,2.50
2023-05-14T12:46:41.959Z,2.50
2023-05-14T12:51:44.032Z,2.42
2023-05-14T12:56:45.917Z,2.28
2023-05-14T13:01:47.688Z,2.00
2023-05-14T13:06:49.623Z,2.58
2023-05-14T13:11:51.334Z,2.30
2023-05-14T13:16:53.091Z,2.30
2023-05-14T13:21:54.866Z,2.05
2023-05-14T13:26:56.649Z,3.17
2023-05-14T13:31:59.287Z,2.43
2023-05-14T13:37:01.370Z,2.90
2023-05-14T13:42:03.266Z,2.78
2023-05-14T13:47:05.408Z,2.15
2023-05-14T13:52:07.402Z,2.30
2023-05-14T13:57:09.226Z,2.50
2023-05-14T14:02:11.076Z,2.50
2023-05-14T14:07:12.821Z,2.72
2023-05-14T14:12:14.772Z,2.33
2023-05-14T14:17:16.586Z,2.30
2023-05-14T14:22:18.561Z,2.55
2023-05-14T14:27:20.631Z,2.08
2023-05-14T14:32:22.390Z,2.40
2023-05-14T14:37:24.153Z,2.20
2023-05-14T14:42:25.924Z,2.05
2023-05-14T14:47:27.793Z,2.00
2023-05-14T14:52:29.721Z,2.03
2023-05-14T14:57:31.864Z,2.20
2023-05-14T15:02:33.696Z,1.98
2023-05-14T15:07:35.570Z,2.10
2023-05-14T15:12:37.404Z,2.42
2023-05-14T15:17:39.646Z,2.20
2023-05-14T15:22:42.208Z,2.38
2023-05-14T15:27:44.271Z,2.08
2023-05-14T15:32:46.602Z,2.00
2023-05-14T15:37:48.404Z,2.00
2023-05-14T15:42:50.172Z,1.92
2023-05-14T15:47:51.956Z,2.00
2023-05-14T15:52:53.909Z,2.28
2023-05-14T15:57:55.875Z,1.90
2023-05-14T16:02:57.714Z,2.22
2023-05-14T16:07:59.577Z,2.53
2023-05-14T16:13:01.314Z,2.28
2023-05-14T16:18:03.139Z,1.83
2023-05-14T16:23:05.118Z,2.10
2023-05-14T16:28:08.005Z,2.15
2023-05-14T16:33:09.862Z,2.50
2023-05-14T16:38:11.710Z,2.75
2023-05-14T16:43:13.515Z,2.65
2023-05-14T16:48:15.604Z,2.60
2023-05-14T16:53:17.599Z,2.85
2023-05-14T16:58:19.542Z,2.45
2023-05-14T17:03:21.345Z,2.67
2023-05-14T17:08:23.076Z,3.47
2023-05-14T17:13:24.882Z,2.75
2023-05-14T17:18:26.649Z,2.78
2023-05-14T17:23:28.436Z,2.63
2023-05-14T17:28:30.474Z,2.90
2023-05-14T17:33:32.290Z,2.65
2023-05-14T17:38:34.684Z,2.95
2023-05-14T17:43:36.383Z,2.90
2023-05-14T17:48:38.114Z,2.65
2023-05-14T17:53:39.882Z,2.58
2023-05-14T17:58:41.646Z,3.28
2023-05-14T18:03:43.591Z,3.28
2023-05-14T18:08:45.473Z,3.25
2023-05-14T18:13:47.192Z,2.78
2023-05-14T18:18:49.031Z,2.58
2023-05-14T18:23:50.854Z,3.13
2023-05-14T18:28:52.634Z,2.90
2023-05-14T18:33:54.452Z,2.40
2023-05-14T18:38:56.293Z,3.00
2023-05-14T18:43:58.052Z,3.60
2023-05-14T18:48:59.777Z,3.50
2023-05-14T18:54:01.501Z,3.65
2023-05-14T18:59:04.247Z,5.93
2023-05-14T19:04:06.350Z,3.72
2023-05-14T19:09:08.585Z,3.47
2023-05-14T19:14:11.372Z,3.13
2023-05-14T19:19:13.499Z,3.20
2023-05-14T19:24:16.003Z,3.00
2023-05-14T19:29:17.820Z,2.92
2023-05-14T19:34:19.600Z,3.50
2023-05-14T19:39:21.433Z,4.18
2023-05-14T19:44:23.190Z,3.85
2023-05-14T19:49:24.949Z,3.42
2023-05-14T19:54:26.677Z,3.80
2023-05-14T19:59:29.742Z,3.42
2023-05-14T20:04:31.482Z,4.20
2023-05-14T20:09:33.219Z,3.17
2023-05-14T20:14:34.928Z,2.97
2023-05-14T20:19:36.671Z,3.60
2023-05-14T20:24:38.736Z,2.47
2023-05-14T20:29:40.487Z,3.50
2023-05-14T20:34:42.268Z,3.58
2023-05-14T20:39:44.222Z,4.45
2023-05-14T20:44:48.248Z,4.43
2023-05-14T20:49:51.163Z,5.07
2023-05-14T20:54:53.007Z,4.20
2023-05-14T20:59:54.752Z,3.67
2023-05-14T21:04:56.635Z,3.40
2023-05-14T21:09:58.651Z,3.42
2023-05-14T21:15:00.448Z,4.10
2023-05-14T21:20:02.547Z,4.10
2023-05-14T21:25:04.723Z,3.78
2023-05-14T21:30:07.327Z,3.30
2023-05-14T21:35:09.572Z,3.28
2023-05-14T21:40:15.021Z,3.53
2023-05-14T21:45:16.957Z,3.05
2023-05-14T21:50:18.885Z,3.63
2023-05-14T21:55:20.858Z,3.92
2023-05-14T22:00:24.090Z,3.40
2023-05-14T22:05:26.211Z,2.60
2023-05-14T22:10:28.261Z,3.25
2023-05-14T22:15:30.030Z,4.20
2023-05-14T22:20:31.876Z,4.03
2023-05-14T22:25:33.896Z,4.30
2023-05-14T22:30:35.808Z,4.68
2023-05-14T22:35:37.541Z,4.18
2023-05-14T22:40:39.301Z,4.30
2023-05-14T22:45:41.112Z,4.20
2023-05-14T22:50:43.021Z,3.70
2023-05-14T22:55:44.934Z,3.45
2023-05-14T23:00:46.789Z,3.85
2023-05-14T23:05:48.526Z,4.00
2023-05-14T23:10:50.266Z,3.42
2023-05-14T23:15:52.004Z,3.20
2023-05-14T23:20:53.890Z,4.22
2023-05-14T23:25:56.154Z,4.35
2023-05-14T23:30:57.932Z,3.00
2023-05-14T23:35:59.792Z,3.33
2023-05-14T23:41:01.533Z,4.57
2023-05-14T23:46:03.984Z,3.45
2023-05-14T23:51:05.854Z,4.03
2023-05-14T23:56:08.259Z,3.75
